createdAt,value
2019-02-22T00:00:59.265Z,76.28
2019-02-22T00:01:59.243Z,76.28
2019-02-22T00:02:59.253Z,76.79
2019-02-22T00:03:59.232Z,76.48
2019-02-22T00:04:59.233Z,76.48
2019-02-22T00:05:59.208Z,76.07
2019-02-22T00:06:59.203Z,76.18
2019-02-22T00:07:59.197Z,76.28
2019-02-22T00:08:59.179Z,76.07
2019-02-22T00:09:59.176Z,76.28
2019-02-22T00:10:59.163Z,76.48
2019-02-22T00:11:59.134Z,76.18
2019-02-22T00:12:59.122Z,76.28
2019-02-22T00:13:59.140Z,76.28
2019-02-22T00:14:59.124Z,75.97
2019-02-22T00:15:59.094Z,76.38
2019-02-22T00:16:59.099Z,76.69
2019-02-22T00:17:59.080Z,76.28
2019-02-22T00:18:59.062Z,76.18
2019-02-22T00:19:59.058Z,76.42
2019-02-22T00:20:59.042Z,76.90
2019-02-22T00:21:59.029Z,76.59
2019-02-22T00:22:59.026Z,76.07
2019-02-22T00:23:59.029Z,76.59
2019-02-22T00:24:59.021Z,76.18
2019-02-22T00:25:58.990Z,77.00
2019-02-22T00:26:58.974Z,76.90
2019-02-22T00:27:58.985Z,76.59
2019-02-22T00:28:58.962Z,76.90
2019-02-22T00:29:58.968Z,76.28
2019-02-22T00:30:58.940Z,76.28
2019-02-22T00:31:58.926Z,76.48
2019-02-22T00:32:58.920Z,76.59
2019-02-22T00:33:58.940Z,76.48
2019-02-22T00:34:59.076Z,76.59
2019-02-22T00:35:58.889Z,76.69
2019-02-22T00:36:58.955Z,76.59
2019-02-22T00:37:58.864Z,76.48
2019-02-22T00:38:58.858Z,76.90
2019-02-22T00:39:58.886Z,76.28
2019-02-22T00:40:58.849Z,76.18
2019-02-22T00:41:58.819Z,76.79
2019-02-22T00:42:58.838Z,76.48
2019-02-22T00:43:58.822Z,76.28
2019-02-22T00:44:58.819Z,76.48
2019-02-22T00:45:58.774Z,76.59
2019-02-22T00:46:58.763Z,76.69
2019-02-22T00:47:58.749Z,76.59
2019-02-22T00:48:58.755Z,76.38
2019-02-22T00:49:58.748Z,76.79
2019-02-22T00:50:58.723Z,76.69
2019-02-22T00:51:58.709Z,76.28
2019-02-22T00:52:58.702Z,76.48
2019-02-22T00:53:58.704Z,76.90
2019-02-22T00:54:58.876Z,77.00
2019-02-22T00:55:58.699Z,76.48
2019-02-22T00:56:58.653Z,76.59
2019-02-22T00:57:58.673Z,76.69
2019-02-22T00:58:58.646Z,76.90
2019-02-22T00:59:58.626Z,77.82
2019-02-22T01:00:58.627Z,76.90
2019-02-22T01:01:58.603Z,78.44
2019-02-22T01:02:58.617Z,77.62
2019-02-22T01:03:58.614Z,77.82
2019-02-22T01:04:58.590Z,78.23
2019-02-22T01:05:58.584Z,77.92
2019-02-22T01:06:58.553Z,78.33
2019-02-22T01:07:58.556Z,77.92
2019-02-22T01:08:58.528Z,78.03
2019-02-22T01:09:58.517Z,78.64
2019-02-22T01:10:58.523Z,78.54
2019-02-22T01:11:58.493Z,79.36
2019-02-22T01:12:58.498Z,79.98
2019-02-22T01:13:58.472Z,79.98
2019-02-22T01:14:58.465Z,79.47
2019-02-22T01:15:58.461Z,79.05
2019-02-22T01:16:58.440Z,78.85
2019-02-22T01:17:58.467Z,78.64
2019-02-22T01:18:58.425Z,78.64
2019-02-22T01:19:58.419Z,78.75
2019-02-22T01:20:58.423Z,77.78
2019-02-22T01:21:58.394Z,78.44
2019-02-22T01:22:58.375Z,77.92
2019-02-22T01:23:58.367Z,77.92
2019-02-22T01:24:58.356Z,77.89
2019-02-22T01:25:58.363Z,78.33
2019-02-22T01:26:58.349Z,77.58
2019-02-22T01:27:58.330Z,77.89
2019-02-22T01:28:58.352Z,78.23
2019-02-22T01:29:58.303Z,77.72
2019-02-22T01:30:58.313Z,76.97
2019-02-22T01:31:58.288Z,77.68
2019-02-22T01:32:58.269Z,77.27
2019-02-22T01:33:58.266Z,77.48
2019-02-22T01:34:58.254Z,76.97
2019-02-22T01:35:58.253Z,77.27
2019-02-22T01:36:58.243Z,77.78
2019-02-22T01:37:58.232Z,77.06
2019-02-22T01:38:58.212Z,76.25
2019-02-22T01:39:58.214Z,77.17
2019-02-22T01:40:58.225Z,76.97
2019-02-22T01:41:58.174Z,76.14
2019-02-22T01:42:58.187Z,77.27
2019-02-22T01:43:58.173Z,77.58
2019-02-22T01:44:58.148Z,77.37
2019-02-22T01:45:58.231Z,76.97
2019-02-22T01:46:58.128Z,77.31
2019-02-22T01:47:58.110Z,77.48
2019-02-22T01:48:58.100Z,77.78
2019-02-22T01:49:58.166Z,77.58
2019-02-22T01:50:58.094Z,77.99
2019-02-22T01:51:58.064Z,77.68
2019-02-22T01:52:58.055Z,77.27
2019-02-22T01:53:58.067Z,77.68
2019-02-22T01:54:58.033Z,77.48
2019-02-22T01:55:58.040Z,77.89
2019-02-22T01:56:58.022Z,78.03
2019-02-22T01:57:58.005Z,77.89
2019-02-22T01:58:57.995Z,77.72
2019-02-22T01:59:57.998Z,77.89
2019-02-22T02:00:57.997Z,77.78
2019-02-22T02:01:57.983Z,78.09
2019-02-22T02:02:57.947Z,78.13
2019-02-22T02:03:57.964Z,77.99
2019-02-22T02:04:57.934Z,77.78
2019-02-22T02:05:57.950Z,77.92
2019-02-22T02:06:57.938Z,77.72
2019-02-22T02:07:57.900Z,78.30
2019-02-22T02:08:57.887Z,77.92
2019-02-22T02:09:57.893Z,78.03
2019-02-22T02:10:57.887Z,77.92
2019-02-22T02:11:57.867Z,78.33
2019-02-22T02:12:57.860Z,78.30
2019-02-22T02:13:57.852Z,77.99
2019-02-22T02:14:57.829Z,77.92
2019-02-22T02:15:57.833Z,77.68
2019-02-22T02:16:57.850Z,77.99
2019-02-22T02:17:57.802Z,77.78
2019-02-22T02:18:57.813Z,77.37
2019-02-22T02:19:57.776Z,77.37
2019-02-22T02:20:57.760Z,77.17
2019-02-22T02:21:57.765Z,77.34
2019-02-22T02:22:57.741Z,77.48
2019-02-22T02:23:57.730Z,77.68
2019-02-22T02:24:57.714Z,78.50
2019-02-22T02:25:57.715Z,79.16
2019-02-22T02:26:57.704Z,79.77
2019-02-22T02:27:57.701Z,79.47
2019-02-22T02:28:57.681Z,79.77
2019-02-22T02:29:57.664Z,80.33
2019-02-22T02:30:57.667Z,80.63
2019-02-22T02:31:57.671Z,81.56
2019-02-22T02:32:57.669Z,81.70
2019-02-22T02:33:57.638Z,80.98
2019-02-22T02:34:57.627Z,80.74
2019-02-22T02:35:57.620Z,81.25
2019-02-22T02:36:57.620Z,81.91
2019-02-22T02:37:57.580Z,81.49
2019-02-22T02:38:57.586Z,82.01
2019-02-22T02:39:57.554Z,82.35
2019-02-22T02:41:07.213Z,82.67
2019-02-22T02:41:58.547Z,83.07
2019-02-22T02:42:57.540Z,82.56
2019-02-22T02:43:57.512Z,83.07
2019-02-22T02:44:57.518Z,83.28
2019-02-22T02:45:57.506Z,83.42
2019-02-22T02:46:57.500Z,83.73
2019-02-22T02:47:57.485Z,83.94
2019-02-22T02:48:57.484Z,84.08
2019-02-22T02:49:57.447Z,84.77
2019-02-22T02:50:57.450Z,84.80
2019-02-22T02:51:57.436Z,84.80
2019-02-22T02:52:57.421Z,84.70
2019-02-22T02:53:57.405Z,85.11
2019-02-22T02:54:57.404Z,85.42
2019-02-22T02:55:57.381Z,85.31
2019-02-22T02:56:57.407Z,85.42
2019-02-22T02:57:57.369Z,86.39
2019-02-22T02:58:57.357Z,86.18
2019-02-22T02:59:57.360Z,86.66
2019-02-22T03:00:57.425Z,86.87
2019-02-22T03:01:57.372Z,86.70
2019-02-22T03:02:57.318Z,85.52
2019-02-22T03:03:57.300Z,84.97
2019-02-22T03:04:57.294Z,84.66
2019-02-22T03:05:57.285Z,84.05
2019-02-22T03:06:57.288Z,83.70
2019-02-22T03:07:57.261Z,83.49
2019-02-22T03:08:57.246Z,83.28
2019-02-22T03:09:57.240Z,84.00
2019-02-22T03:10:57.233Z,83.70
2019-02-22T03:11:57.230Z,82.97
2019-02-22T03:12:57.202Z,83.39
2019-02-22T03:13:57.232Z,83.45
2019-02-22T03:14:57.183Z,83.90
2019-02-22T03:15:57.186Z,84.62
2019-02-22T03:16:57.204Z,84.11
2019-02-22T03:17:57.157Z,84.00
2019-02-22T03:18:57.143Z,84.14
2019-02-22T03:19:57.136Z,84.87
2019-02-22T03:20:57.120Z,84.66
2019-02-22T03:21:57.103Z,84.77
2019-02-22T03:22:57.106Z,85.07
2019-02-22T03:23:57.084Z,85.07
2019-02-22T03:24:57.081Z,85.59
2019-02-22T03:25:57.070Z,85.38
2019-02-22T03:26:57.080Z,85.79
2019-02-22T03:27:57.055Z,86.10
2019-02-22T03:28:57.031Z,85.89
2019-02-22T03:29:57.075Z,86.00
2019-02-22T03:30:57.119Z,86.10
2019-02-22T03:31:57.011Z,86.15
2019-02-22T03:32:57.029Z,87.07
2019-02-22T03:33:57.034Z,87.07
2019-02-22T03:34:57.012Z,87.63
2019-02-22T03:35:56.975Z,87.01
2019-02-22T03:36:56.968Z,87.52
2019-02-22T03:37:56.957Z,87.66
2019-02-22T03:38:56.957Z,87.66
2019-02-22T03:39:56.915Z,87.40
2019-02-22T03:40:56.935Z,87.71
2019-02-22T03:41:56.921Z,88.43
2019-02-22T03:42:56.912Z,89.50
2019-02-22T03:43:56.928Z,90.19
2019-02-22T03:44:56.861Z,89.87
2019-02-22T03:45:56.850Z,88.89
2019-02-22T03:46:56.852Z,89.09
2019-02-22T03:47:56.850Z,89.09
2019-02-22T03:48:56.822Z,89.09
2019-02-22T03:49:56.809Z,89.44
2019-02-22T03:50:56.827Z,89.65
2019-02-22T03:51:56.790Z,89.75
2019-02-22T03:52:56.822Z,89.95
2019-02-22T03:53:57.662Z,90.78
2019-02-22T03:54:56.794Z,91.40
2019-02-22T03:55:56.745Z,91.30
2019-02-22T03:56:56.758Z,91.61
2019-02-22T03:57:56.739Z,91.46
2019-02-22T03:58:56.732Z,91.16
2019-02-22T03:59:56.709Z,89.77
2019-02-22T04:00:56.703Z,89.11
2019-02-22T04:01:56.681Z,88.49
2019-02-22T04:02:56.714Z,88.49
2019-02-22T04:03:56.686Z,88.39
2019-02-22T04:04:56.668Z,87.87
2019-02-22T04:05:56.659Z,88.56
2019-02-22T04:06:56.653Z,87.98
2019-02-22T04:07:56.637Z,88.14
2019-02-22T04:08:56.613Z,87.63
2019-02-22T04:09:56.614Z,87.38
2019-02-22T04:10:56.582Z,86.24
2019-02-22T04:11:56.579Z,86.41
2019-02-22T04:12:56.577Z,85.34
2019-02-22T04:13:56.556Z,85.44
2019-02-22T04:14:56.562Z,85.03
2019-02-22T04:15:56.555Z,84.83
2019-02-22T04:16:56.523Z,85.14
2019-02-22T04:17:56.533Z,85.55
2019-02-22T04:18:56.518Z,85.89
2019-02-22T04:19:56.514Z,85.38
2019-02-22T04:20:56.484Z,85.49
2019-02-22T04:21:56.465Z,86.00
2019-02-22T04:22:56.473Z,86.87
2019-02-22T04:23:56.448Z,87.11
2019-02-22T04:24:56.434Z,87.42
2019-02-22T04:25:56.431Z,88.14
2019-02-22T04:26:56.416Z,88.56
2019-02-22T04:27:56.420Z,89.01
2019-02-22T04:28:56.441Z,89.11
2019-02-22T04:29:56.394Z,89.22
2019-02-22T04:30:56.395Z,89.22
2019-02-22T04:31:56.360Z,89.36
2019-02-22T04:32:56.366Z,89.46
2019-02-22T04:33:56.352Z,89.56
2019-02-22T04:34:56.332Z,89.77
2019-02-22T04:35:56.346Z,89.46
2019-02-22T04:36:56.336Z,89.67
2019-02-22T04:37:56.327Z,89.77
2019-02-22T04:38:56.312Z,89.71
2019-02-22T04:39:56.271Z,90.28
2019-02-22T04:40:56.266Z,91.11
2019-02-22T04:41:58.224Z,89.98
2019-02-22T04:42:56.257Z,89.56
2019-02-22T04:43:56.241Z,89.56
2019-02-22T04:44:56.223Z,89.67
2019-02-22T04:45:56.233Z,90.39
2019-02-22T04:46:56.221Z,90.19
2019-02-22T04:47:56.212Z,89.87
2019-02-22T04:48:56.228Z,89.56
2019-02-22T04:49:56.189Z,89.98
2019-02-22T04:50:56.176Z,89.62
2019-02-22T04:51:56.146Z,89.62
2019-02-22T04:52:56.152Z,89.01
2019-02-22T04:53:56.153Z,89.11
2019-02-22T04:54:56.128Z,89.22
2019-02-22T04:55:56.108Z,89.11
2019-02-22T04:56:56.110Z,89.32
2019-02-22T04:57:56.130Z,89.01
2019-02-22T04:58:56.080Z,89.01
2019-02-22T04:59:56.135Z,89.58
2019-02-22T05:00:56.090Z,89.38
2019-02-22T05:01:56.047Z,89.58
2019-02-22T05:02:56.066Z,89.73
2019-02-22T05:03:56.029Z,89.79
2019-02-22T05:04:56.023Z,89.73
2019-02-22T05:05:56.032Z,89.17
2019-02-22T05:06:55.995Z,88.96
2019-02-22T05:07:56.003Z,89.22
2019-02-22T05:08:55.978Z,89.62
2019-02-22T05:09:55.994Z,90.19
2019-02-22T05:10:55.949Z,90.28
2019-02-22T05:11:55.938Z,90.08
2019-02-22T05:12:55.924Z,90.39
2019-02-22T05:13:55.985Z,89.56
2019-02-22T05:14:55.935Z,89.77
2019-02-22T05:15:55.892Z,88.95
2019-02-22T05:16:55.885Z,89.61
2019-02-22T05:17:55.884Z,90.22
2019-02-22T05:18:55.873Z,90.43
2019-02-22T05:19:55.858Z,90.58
2019-02-22T05:20:55.855Z,90.89
2019-02-22T05:21:55.835Z,91.20
2019-02-22T05:23:03.819Z,91.61
2019-02-22T05:23:56.829Z,90.41
2019-02-22T05:24:55.822Z,91.34
2019-02-22T05:25:55.811Z,91.17
2019-02-22T05:26:55.792Z,92.32
2019-02-22T05:27:55.764Z,92.21
2019-02-22T05:28:55.759Z,92.97
2019-02-22T05:29:55.743Z,93.18
2019-02-22T05:30:55.742Z,94.01
2019-02-22T05:31:55.728Z,93.49
2019-02-22T05:32:55.741Z,92.57
2019-02-22T05:33:55.724Z,92.61
2019-02-22T05:34:55.687Z,93.12
2019-02-22T05:35:55.677Z,93.43
2019-02-22T05:36:55.695Z,94.06
2019-02-22T05:37:55.660Z,94.47
2019-02-22T05:38:55.658Z,95.61
2019-02-22T05:39:55.647Z,95.87
2019-02-22T05:40:55.625Z,95.73
2019-02-22T05:41:55.622Z,94.65
2019-02-22T05:42:55.604Z,93.93
2019-02-22T05:43:55.612Z,93.37
2019-02-22T05:44:55.577Z,93.05
2019-02-22T05:45:55.566Z,92.50
2019-02-22T05:47:00.325Z,92.74
2019-02-22T05:47:56.552Z,91.92
2019-02-22T05:48:55.552Z,92.50
2019-02-22T05:49:55.532Z,92.40
2019-02-22T05:50:55.515Z,92.80
2019-02-22T05:51:55.502Z,92.46
2019-02-22T05:52:55.507Z,92.55
2019-02-22T05:53:55.495Z,92.04
2019-02-22T05:54:55.493Z,92.35
2019-02-22T05:55:55.499Z,91.73
2019-02-22T05:56:55.483Z,90.86
2019-02-22T05:57:55.445Z,90.86
2019-02-22T05:58:55.451Z,90.45
2019-02-22T05:59:55.433Z,89.69
2019-02-22T06:00:55.420Z,89.69
2019-02-22T06:01:55.405Z,88.41
2019-02-22T06:02:55.441Z,87.90
2019-02-22T06:03:55.389Z,88.51
2019-02-22T06:04:55.368Z,87.65
2019-02-22T06:05:55.354Z,87.48
2019-02-22T06:06:55.368Z,86.93
2019-02-22T06:07:55.343Z,87.65
2019-02-22T06:08:55.336Z,88.37
2019-02-22T06:09:55.362Z,88.06
2019-02-22T06:10:55.318Z,88.31
2019-02-22T06:11:55.293Z,87.69
2019-02-22T06:12:55.328Z,87.48
2019-02-22T06:13:55.283Z,87.65
2019-02-22T06:14:55.255Z,88.10
2019-02-22T06:15:55.244Z,88.26
2019-02-22T06:16:55.272Z,87.85
2019-02-22T06:17:55.222Z,87.54
2019-02-22T06:18:55.238Z,87.75
2019-02-22T06:19:55.224Z,88.26
2019-02-22T06:20:55.192Z,88.06
2019-02-22T06:21:55.183Z,87.85
2019-02-22T06:22:55.176Z,87.75
2019-02-22T06:23:55.184Z,88.41
2019-02-22T06:24:55.153Z,87.79
2019-02-22T06:25:55.172Z,89.23
2019-02-22T06:26:55.128Z,88.82
2019-02-22T06:27:55.126Z,88.51
2019-02-22T06:28:55.131Z,88.10
2019-02-22T06:29:55.124Z,87.54
2019-02-22T06:30:55.088Z,87.59
2019-02-22T06:31:55.103Z,88.51
2019-02-22T06:32:55.079Z,88.41
2019-02-22T06:33:55.106Z,87.99
2019-02-22T06:34:55.065Z,88.47
2019-02-22T06:35:55.049Z,88.62
2019-02-22T06:37:01.871Z,88.10
2019-02-22T06:37:56.054Z,88.20
2019-02-22T06:38:55.019Z,87.96
2019-02-22T06:39:55.025Z,88.26
2019-02-22T06:40:55.024Z,88.51
2019-02-22T06:41:54.996Z,88.06
2019-02-22T06:42:54.979Z,88.31
2019-02-22T06:43:54.970Z,88.47
2019-02-22T06:44:54.945Z,87.96
2019-02-22T06:45:54.936Z,87.75
2019-02-22T06:46:54.943Z,88.26
2019-02-22T06:47:54.907Z,87.54
2019-02-22T06:48:54.929Z,87.34
2019-02-22T06:49:54.986Z,87.44
2019-02-22T06:50:54.872Z,87.51
2019-02-22T06:51:54.870Z,87.40
2019-02-22T06:52:54.858Z,87.71
2019-02-22T06:53:54.867Z,87.81
2019-02-22T06:54:54.865Z,88.26
2019-02-22T06:55:54.822Z,88.02
2019-02-22T06:56:54.835Z,87.85
2019-02-22T06:57:54.797Z,87.75
2019-02-22T06:58:54.861Z,88.02
2019-02-22T06:59:54.786Z,88.02
2019-02-22T07:00:54.788Z,87.40
2019-02-22T07:01:54.770Z,87.51
2019-02-22T07:02:54.782Z,87.40
2019-02-22T07:03:54.743Z,87.30
2019-02-22T07:04:54.749Z,87.40
2019-02-22T07:05:54.742Z,86.64
2019-02-22T07:06:54.792Z,86.74
2019-02-22T07:07:56.786Z,86.85
2019-02-22T07:08:54.691Z,86.95
2019-02-22T07:09:54.701Z,86.33
2019-02-22T07:10:54.672Z,86.13
2019-02-22T07:11:54.653Z,86.08
2019-02-22T07:12:56.937Z,85.36
2019-02-22T07:13:54.674Z,85.57
2019-02-22T07:14:54.676Z,85.12
2019-02-22T07:15:54.610Z,84.91
2019-02-22T07:16:54.637Z,85.12
2019-02-22T07:17:54.615Z,85.22
2019-02-22T07:18:54.593Z,85.18
2019-02-22T07:19:54.574Z,85.80
2019-02-22T07:20:54.566Z,84.77
2019-02-22T07:21:54.634Z,84.77
2019-02-22T07:22:54.663Z,85.43
2019-02-22T07:23:54.558Z,84.98
2019-02-22T07:24:54.546Z,84.88
2019-02-22T07:25:54.504Z,84.77
2019-02-22T07:26:54.505Z,84.88
2019-02-22T07:27:54.480Z,84.77
2019-02-22T07:28:54.497Z,85.18
2019-02-22T07:29:54.489Z,84.94
2019-02-22T07:30:54.482Z,85.35
2019-02-22T07:32:02.711Z,85.86
2019-02-22T07:32:55.458Z,84.53
2019-02-22T07:33:54.441Z,84.42
2019-02-22T07:34:54.469Z,84.63
2019-02-22T07:35:54.423Z,84.80
2019-02-22T07:36:54.411Z,85.62
2019-02-22T07:37:54.394Z,85.31
2019-02-22T07:38:54.396Z,84.08
2019-02-22T07:39:54.357Z,83.67
2019-02-22T07:40:54.363Z,84.49
2019-02-22T07:41:54.334Z,83.36
2019-02-22T07:42:54.338Z,83.56
2019-02-22T07:43:54.379Z,83.83
2019-02-22T07:44:54.311Z,84.69
2019-02-22T07:45:54.319Z,85.21
2019-02-22T07:46:54.317Z,85.11
2019-02-22T07:47:54.274Z,84.69
2019-02-22T07:48:54.257Z,83.77
2019-02-22T07:49:54.250Z,84.69
2019-02-22T07:50:58.043Z,84.49
2019-02-22T07:51:54.272Z,84.18
2019-02-22T07:52:54.224Z,84.90
2019-02-22T07:53:54.207Z,83.67
2019-02-22T07:54:54.196Z,83.77
2019-02-22T07:55:54.217Z,83.87
2019-02-22T07:56:54.229Z,84.39
2019-02-22T07:57:54.196Z,84.49
2019-02-22T07:58:54.148Z,83.15
2019-02-22T07:59:54.163Z,83.01
2019-02-22T08:00:54.154Z,82.50
2019-02-22T08:01:54.127Z,82.91
2019-02-22T08:02:54.105Z,83.01
2019-02-22T08:03:54.116Z,81.68
2019-02-22T08:04:54.113Z,82.09
2019-02-22T08:05:54.097Z,82.60
2019-02-22T08:06:54.063Z,82.29
2019-02-22T08:07:54.049Z,82.70
2019-02-22T08:08:54.053Z,82.46
2019-02-22T08:09:54.041Z,81.48
2019-02-22T08:10:54.042Z,81.85
2019-02-22T08:11:54.012Z,81.74
2019-02-22T08:12:54.008Z,80.92
2019-02-22T08:13:53.991Z,81.23
2019-02-22T08:14:53.994Z,80.21
2019-02-22T08:15:53.983Z,79.59
2019-02-22T08:16:53.971Z,80.31
2019-02-22T08:17:53.947Z,80.72
2019-02-22T08:19:01.702Z,80.17
2019-02-22T08:19:54.919Z,79.45
2019-02-22T08:20:53.951Z,78.39
2019-02-22T08:21:53.959Z,76.85
2019-02-22T08:22:53.935Z,78.49
2019-02-22T08:23:53.907Z,78.80
2019-02-22T08:24:53.939Z,76.95
2019-02-22T08:25:53.934Z,77.26
2019-02-22T08:26:53.891Z,76.65
2019-02-22T08:27:54.524Z,75.31
2019-02-22T08:28:53.843Z,76.92
2019-02-22T08:29:53.841Z,76.20
2019-02-22T08:30:53.834Z,74.87
2019-02-22T08:31:53.823Z,74.56
2019-02-22T08:32:53.839Z,74.66
2019-02-22T08:33:53.824Z,73.74
2019-02-22T08:34:53.824Z,73.33
2019-02-22T08:35:53.761Z,74.15
2019-02-22T08:36:53.783Z,73.61
2019-02-22T08:37:53.770Z,74.94
2019-02-22T08:38:53.791Z,73.50
2019-02-22T08:39:58.593Z,72.48
2019-02-22T08:40:54.696Z,73.40
2019-02-22T08:41:53.704Z,74.84
2019-02-22T08:42:53.680Z,72.58
2019-02-22T08:43:53.703Z,72.45
2019-02-22T08:44:53.661Z,72.00
2019-02-22T08:45:53.654Z,72.34
2019-02-22T08:46:53.668Z,71.39
2019-02-22T08:47:53.628Z,71.80
2019-02-22T08:48:53.645Z,72.75
2019-02-22T08:49:53.613Z,73.54
2019-02-22T08:50:53.635Z,72.00
2019-02-22T08:51:53.590Z,74.39
2019-02-22T08:52:53.565Z,73.27
2019-02-22T08:53:53.588Z,72.14
2019-02-22T08:54:53.552Z,73.54
2019-02-22T08:55:53.551Z,72.14
2019-02-22T08:56:53.551Z,71.94
2019-02-22T08:57:53.523Z,73.06
2019-02-22T08:58:53.511Z,73.57
2019-02-22T08:59:53.524Z,73.23
2019-02-22T09:00:53.494Z,74.97
2019-02-22T09:01:53.570Z,72.62
2019-02-22T09:02:53.522Z,72.17
2019-02-22T09:03:53.451Z,72.79
2019-02-22T09:04:53.436Z,71.97
2019-02-22T09:05:53.484Z,72.34
2019-02-22T09:06:53.475Z,73.57
2019-02-22T09:07:53.430Z,70.81
2019-02-22T09:08:53.427Z,72.34
2019-02-22T09:09:53.431Z,72.41
2019-02-22T09:11:00.416Z,71.91
2019-02-22T09:11:54.410Z,70.98
2019-02-22T09:12:53.370Z,69.96
2019-02-22T09:13:53.365Z,69.48
2019-02-22T09:14:53.356Z,70.54
2019-02-22T09:15:53.344Z,71.46
2019-02-22T09:16:53.336Z,70.26
2019-02-22T09:17:55.295Z,70.34
2019-02-22T09:18:53.351Z,70.57
2019-02-22T09:19:53.326Z,70.88
2019-02-22T09:20:53.289Z,70.78
2019-02-22T09:21:53.283Z,70.57
2019-02-22T09:22:53.290Z,70.98
2019-02-22T09:23:53.265Z,71.29
2019-02-22T09:24:53.233Z,71.36
2019-02-22T09:25:53.241Z,72.14
2019-02-22T09:26:53.219Z,70.40
2019-02-22T09:27:53.194Z,70.71
2019-02-22T09:28:55.471Z,72.21
2019-02-22T09:29:58.943Z,69.28
2019-02-22T09:30:54.170Z,69.56
2019-02-22T09:31:53.158Z,70.06
2019-02-22T09:32:53.149Z,69.24
2019-02-22T09:33:53.125Z,69.93
2019-02-22T09:34:53.116Z,70.78
2019-02-22T09:35:53.135Z,70.54
2019-02-22T09:36:53.119Z,72.58
2019-02-22T09:37:53.109Z,72.00
2019-02-22T09:38:53.111Z,70.78
2019-02-22T09:39:53.099Z,69.39
2019-02-22T09:40:53.046Z,69.63
2019-02-22T09:41:53.089Z,68.67
2019-02-22T09:42:53.031Z,70.40
2019-02-22T09:43:55.579Z,68.98
2019-02-22T09:44:53.047Z,70.40
2019-02-22T09:45:53.049Z,70.48
2019-02-22T09:46:53.026Z,68.44
2019-02-22T09:47:53.024Z,68.03
2019-02-22T09:48:52.998Z,69.66
2019-02-22T09:49:52.995Z,70.37
2019-02-22T09:50:52.951Z,68.64
2019-02-22T09:51:52.953Z,68.64
2019-02-22T09:52:52.946Z,69.86
2019-02-22T09:53:52.944Z,69.35
2019-02-22T09:54:52.897Z,68.44
2019-02-22T09:55:52.889Z,68.91
2019-02-22T09:56:52.891Z,67.59
2019-02-22T09:57:52.875Z,68.71
2019-02-22T09:58:52.860Z,67.90
2019-02-22T09:59:52.889Z,68.23
2019-02-22T10:00:52.869Z,68.84
2019-02-22T10:01:52.894Z,68.67
2019-02-22T10:02:52.823Z,68.16
2019-02-22T10:03:52.820Z,68.67
2019-02-22T10:04:55.534Z,68.77
2019-02-22T10:05:52.807Z,67.41
2019-02-22T10:06:52.801Z,68.44
2019-02-22T10:07:52.775Z,70.44
2019-02-22T10:08:52.792Z,67.52
2019-02-22T10:09:52.806Z,67.49
2019-02-22T10:10:52.730Z,68.64
2019-02-22T10:11:52.721Z,69.42
2019-02-22T10:12:52.739Z,66.77
2019-02-22T10:13:52.691Z,67.96
2019-02-22T10:14:52.736Z,66.85
2019-02-22T10:15:52.670Z,66.71
2019-02-22T10:16:52.677Z,69.97
2019-02-22T10:17:52.669Z,69.56
2019-02-22T10:18:52.664Z,68.58
2019-02-22T10:19:52.643Z,66.41
2019-02-22T10:20:52.618Z,66.04
2019-02-22T10:21:52.622Z,64.18
2019-02-22T10:22:52.627Z,66.21
2019-02-22T10:23:52.622Z,64.04
2019-02-22T10:24:52.572Z,64.69
2019-02-22T10:25:52.602Z,64.51
2019-02-22T10:26:52.578Z,65.05
2019-02-22T10:27:52.555Z,64.44
2019-02-22T10:28:52.546Z,63.73
2019-02-22T10:29:52.542Z,62.88
2019-02-22T10:30:52.508Z,63.77
2019-02-22T10:31:52.502Z,64.38
2019-02-22T10:32:52.524Z,64.76
2019-02-22T10:33:52.490Z,64.99
2019-02-22T10:34:52.472Z,64.45
2019-02-22T10:35:52.453Z,64.52
2019-02-22T10:36:52.480Z,64.42
2019-02-22T10:37:52.443Z,61.98
2019-02-22T10:38:52.424Z,62.90
2019-02-22T10:39:52.492Z,62.79
2019-02-22T10:40:52.400Z,64.29
2019-02-22T10:41:52.412Z,62.46
2019-02-22T10:42:52.500Z,63.00
2019-02-22T10:43:52.371Z,62.56
2019-02-22T10:44:52.363Z,62.36
2019-02-22T10:45:52.433Z,62.63
2019-02-22T10:46:52.353Z,60.74
2019-02-22T10:47:52.353Z,61.72
2019-02-22T10:48:52.331Z,63.04
2019-02-22T10:49:52.323Z,62.94
2019-02-22T10:50:52.306Z,63.52
2019-02-22T10:51:52.332Z,62.68
2019-02-22T10:53:01.863Z,60.11
2019-02-22T10:53:53.287Z,59.50
2019-02-22T10:54:52.254Z,58.47
2019-02-22T10:55:52.297Z,59.81
2019-02-22T10:56:52.258Z,60.24
2019-02-22T10:57:52.226Z,60.88
2019-02-22T10:58:52.222Z,61.82
2019-02-22T10:59:52.202Z,62.84
2019-02-22T11:00:52.253Z,65.78
2019-02-22T11:01:52.174Z,64.36
2019-02-22T11:02:52.180Z,63.65
2019-02-22T11:03:52.156Z,64.56
2019-02-22T11:04:52.241Z,66.36
2019-02-22T11:05:52.139Z,63.95
2019-02-22T11:06:52.120Z,64.46
2019-02-22T11:07:52.135Z,62.87
2019-02-22T11:08:52.284Z,63.17
2019-02-22T11:09:52.098Z,64.73
2019-02-22T11:10:52.076Z,64.65
2019-02-22T11:11:52.062Z,64.76
2019-02-22T11:12:52.069Z,64.89
2019-02-22T11:13:52.069Z,66.41
2019-02-22T11:14:52.048Z,65.09
2019-02-22T11:15:52.051Z,66.41
2019-02-22T11:16:52.071Z,66.79
2019-02-22T11:17:52.042Z,68.44
2019-02-22T11:18:52.020Z,65.30
2019-02-22T11:19:52.670Z,65.30
2019-02-22T11:20:51.974Z,66.21
2019-02-22T11:21:51.961Z,65.91
2019-02-22T11:22:51.961Z,65.91
2019-02-22T11:23:51.961Z,67.83
2019-02-22T11:24:51.949Z,65.91
2019-02-22T11:25:51.923Z,66.69
2019-02-22T11:26:51.912Z,65.03
2019-02-22T11:27:51.897Z,64.83
2019-02-22T11:28:51.907Z,66.55
2019-02-22T11:29:51.879Z,64.83
2019-02-22T11:30:51.914Z,65.74
2019-02-22T11:31:51.861Z,65.88
2019-02-22T11:32:51.860Z,65.57
2019-02-22T11:33:51.865Z,67.19
2019-02-22T11:34:51.826Z,66.99
2019-02-22T11:35:51.815Z,67.10
2019-02-22T11:36:51.806Z,66.08
2019-02-22T11:37:51.810Z,66.89
2019-02-22T11:38:51.847Z,66.61
2019-02-22T11:39:51.809Z,66.92
2019-02-22T11:40:51.766Z,66.92
2019-02-22T11:41:51.787Z,66.65
2019-02-22T11:42:51.750Z,67.26
2019-02-22T11:43:51.757Z,67.63
2019-02-22T11:44:51.789Z,67.94
2019-02-22T11:45:51.744Z,66.92
2019-02-22T11:46:51.724Z,67.33
2019-02-22T11:47:51.688Z,67.66
2019-02-22T11:48:51.690Z,69.49
2019-02-22T11:49:51.669Z,69.70
2019-02-22T11:50:51.662Z,68.18
2019-02-22T11:51:51.655Z,68.21
2019-02-22T11:52:51.633Z,68.92
2019-02-22T11:53:51.633Z,70.01
2019-02-22T11:54:51.667Z,68.18
2019-02-22T11:55:51.606Z,69.49
2019-02-22T11:56:51.603Z,69.40
2019-02-22T11:57:51.582Z,69.36
2019-02-22T11:58:51.604Z,69.19
2019-02-22T11:59:51.557Z,70.07
2019-02-22T12:00:51.560Z,68.24
2019-02-22T12:01:51.537Z,69.87
2019-02-22T12:02:51.524Z,69.13
2019-02-22T12:03:51.531Z,67.97
2019-02-22T12:04:51.503Z,67.77
2019-02-22T12:05:51.526Z,67.54
2019-02-22T12:06:51.527Z,67.24
2019-02-22T12:07:51.490Z,67.47
2019-02-22T12:08:51.497Z,66.46
2019-02-22T12:09:51.617Z,66.66
2019-02-22T12:10:51.448Z,66.69
2019-02-22T12:11:51.430Z,67.61
2019-02-22T12:12:51.418Z,65.48
2019-02-22T12:13:51.424Z,66.19
2019-02-22T12:14:52.351Z,65.88
2019-02-22T12:15:51.423Z,66.83
2019-02-22T12:16:51.449Z,68.28
2019-02-22T12:17:51.405Z,68.18
2019-02-22T12:18:51.406Z,68.21
2019-02-22T12:19:51.343Z,67.97
2019-02-22T12:20:51.335Z,67.67
2019-02-22T12:21:51.387Z,67.77
2019-02-22T12:22:51.338Z,68.99
2019-02-22T12:23:52.948Z,68.96
2019-02-22T12:24:51.422Z,67.44
2019-02-22T12:25:51.298Z,69.37
2019-02-22T12:26:51.273Z,68.55
2019-02-22T12:27:51.302Z,69.64
2019-02-22T12:28:51.257Z,68.35
2019-02-22T12:29:51.313Z,65.99
2019-02-22T12:30:51.280Z,65.72
2019-02-22T12:31:51.265Z,66.23
2019-02-22T12:32:51.230Z,68.19
2019-02-22T12:33:51.206Z,67.75
2019-02-22T12:34:51.197Z,68.35
2019-02-22T12:35:51.230Z,67.00
2019-02-22T12:36:51.165Z,66.47
2019-02-22T12:37:51.160Z,64.28
2019-02-22T12:38:51.156Z,62.87
2019-02-22T12:39:51.144Z,60.89
2019-02-22T12:40:51.124Z,60.53
2019-02-22T12:41:53.547Z,58.32
2019-02-22T12:42:51.131Z,57.31
2019-02-22T12:43:51.079Z,58.01
2019-02-22T12:45:02.319Z,58.65
2019-02-22T12:45:52.117Z,59.73
2019-02-22T12:46:51.051Z,57.38
2019-02-22T12:47:51.089Z,57.71
2019-02-22T12:48:51.039Z,58.12
2019-02-22T12:49:51.027Z,58.29
2019-02-22T12:50:51.045Z,57.30
2019-02-22T12:51:50.995Z,54.46
2019-02-22T12:52:50.983Z,54.15